createdAt,value
2023-05-21T00:01:06.943Z,8.43
2023-05-21T00:03:36.244Z,8.20
2023-05-21T00:06:04.332Z,8.50
2023-05-21T00:08:34.191Z,8.75
2023-05-21T00:11:01.382Z,7.93
2023-05-21T00:13:28.430Z,8.85
2023-05-21T00:15:55.365Z,7.60
2023-05-21T00:18:22.550Z,8.70
2023-05-21T00:20:49.768Z,8.10
2023-05-21T00:23:18.668Z,7.87
2023-05-21T00:25:46.714Z,8.40
2023-05-21T00:28:13.693Z,8.30
2023-05-21T00:30:41.079Z,7.67
2023-05-21T00:33:10.554Z,8.07
2023-05-21T00:35:38.069Z,7.80
2023-05-21T00:38:08.543Z,7.70
2023-05-21T00:40:36.457Z,7.90
2023-05-21T00:43:03.647Z,9.00
2023-05-21T00:45:30.789Z,7.50
2023-05-21T00:47:58.293Z,8.40
2023-05-21T00:50:26.159Z,8.27
2023-05-21T00:52:53.405Z,8.27
2023-05-21T00:55:20.670Z,8.40
2023-05-21T00:57:48.002Z,9.70
2023-05-21T01:00:16.463Z,9.47
2023-05-21T01:02:44.542Z,8.50
2023-05-21T01:05:11.763Z,8.57
2023-05-21T01:07:41.563Z,8.23
2023-05-21T01:10:10.558Z,8.27
2023-05-21T01:12:39.844Z,9.43
2023-05-21T01:15:07.337Z,8.03
2023-05-21T01:17:34.490Z,8.87
2023-05-21T01:20:02.744Z,8.37
2023-05-21T01:22:32.684Z,8.17
2023-05-21T01:25:02.923Z,8.43
2023-05-21T01:27:30.003Z,8.30
2023-05-21T01:29:57.746Z,8.83
2023-05-21T01:32:36.585Z,8.73
2023-05-21T01:35:26.336Z,9.83
2023-05-21T01:38:07.099Z,9.43
2023-05-21T01:40:47.191Z,8.70
2023-05-21T01:43:15.465Z,8.00
2023-05-21T01:45:43.961Z,8.13
2023-05-21T01:48:13.012Z,9.13
2023-05-21T01:50:41.877Z,8.97
2023-05-21T01:53:09.069Z,9.47
2023-05-21T01:55:39.666Z,8.93
2023-05-21T01:58:06.759Z,8.60
2023-05-21T02:00:34.698Z,8.90
2023-05-21T02:03:01.676Z,7.83
2023-05-21T02:05:28.807Z,8.87
2023-05-21T02:07:57.070Z,8.33
2023-05-21T02:10:24.341Z,9.17
2023-05-21T02:12:51.503Z,8.23
2023-05-21T02:15:19.310Z,8.30
2023-05-21T02:17:47.111Z,8.27
2023-05-21T02:20:14.725Z,9.30
2023-05-21T02:22:43.512Z,9.17
2023-05-21T02:25:11.595Z,8.67
2023-05-21T02:27:39.576Z,8.47
2023-05-21T02:30:09.593Z,9.00
2023-05-21T02:32:37.068Z,9.10
2023-05-21T02:35:05.422Z,8.80
2023-05-21T02:37:34.304Z,8.70
2023-05-21T02:40:04.241Z,8.40
2023-05-21T02:42:31.443Z,9.20
2023-05-21T02:44:58.482Z,8.50
2023-05-21T02:47:25.819Z,8.60
2023-05-21T02:49:53.948Z,8.23
2023-05-21T02:52:24.266Z,9.10
2023-05-21T02:54:52.460Z,9.23
2023-05-21T02:57:19.478Z,8.23
2023-05-21T02:59:46.644Z,8.10
2023-05-21T03:02:13.748Z,8.40
2023-05-21T03:04:46.508Z,9.13
2023-05-21T03:07:15.154Z,8.00
2023-05-21T03:09:42.595Z,7.90
2023-05-21T03:12:09.854Z,8.03
2023-05-21T03:14:37.082Z,8.17
2023-05-21T03:17:08.033Z,8.57
2023-05-21T03:19:36.466Z,8.50
2023-05-21T03:22:06.973Z,7.53
2023-05-21T03:24:33.861Z,8.23
2023-05-21T03:27:06.479Z,7.93
2023-05-21T03:29:33.994Z,8.67
2023-05-21T03:32:02.040Z,8.03
2023-05-21T03:34:29.225Z,8.23
2023-05-21T03:36:56.373Z,8.00
2023-05-21T03:39:23.606Z,7.90
2023-05-21T03:41:50.951Z,7.70
2023-05-21T03:44:17.868Z,7.93
2023-05-21T03:46:45.674Z,7.80
2023-05-21T03:49:13.459Z,7.13
2023-05-21T03:51:40.486Z,7.13
2023-05-21T03:54:07.548Z,6.90
2023-05-21T03:56:34.759Z,6.30
2023-05-21T03:59:01.941Z,7.00
2023-05-21T04:01:29.075Z,7.07
2023-05-21T04:03:56.334Z,6.63
2023-05-21T04:06:23.476Z,6.97
2023-05-21T04:08:50.787Z,6.83
2023-05-21T04:11:17.906Z,6.13
2023-05-21T04:13:44.765Z,6.43
2023-05-21T04:16:14.678Z,6.63
2023-05-21T04:18:44.882Z,6.17
2023-05-21T04:21:15.337Z,6.00
2023-05-21T04:23:42.624Z,5.67
2023-05-21T04:26:12.776Z,5.82
2023-05-21T04:28:42.139Z,5.93
2023-05-21T04:31:09.118Z,6.13
2023-05-21T04:33:36.244Z,5.87
2023-05-21T04:36:03.952Z,5.13
2023-05-21T04:38:30.843Z,6.10
2023-05-21T04:40:58.840Z,5.47
2023-05-21T04:43:26.534Z,4.57
2023-05-21T04:45:55.071Z,5.47
2023-05-21T04:48:27.173Z,4.80
2023-05-21T04:50:56.128Z,5.60
2023-05-21T04:53:26.138Z,4.57
2023-05-21T04:55:53.230Z,4.80
2023-05-21T04:58:20.366Z,4.83
2023-05-21T05:00:47.633Z,4.40
2023-05-21T05:03:14.892Z,5.25
2023-05-21T05:05:43.009Z,4.00
2023-05-21T05:08:10.198Z,4.03
2023-05-21T05:10:37.335Z,3.88
2023-05-21T05:13:04.498Z,4.43
2023-05-21T05:15:31.759Z,4.95
2023-05-21T05:17:58.802Z,4.82
2023-05-21T05:20:26.007Z,4.57
2023-05-21T05:22:52.966Z,4.37
2023-05-21T05:25:20.208Z,4.00
2023-05-21T05:27:47.356Z,3.88
2023-05-21T05:30:14.337Z,4.30
2023-05-21T05:32:41.238Z,4.40
2023-05-21T05:35:08.709Z,3.63
2023-05-21T05:37:35.547Z,3.35
2023-05-21T05:40:02.382Z,3.50
2023-05-21T05:42:29.205Z,3.60
2023-05-21T05:44:56.096Z,3.88
2023-05-21T05:47:23.073Z,3.28
2023-05-21T05:49:49.943Z,3.65
2023-05-21T05:52:16.774Z,3.40
2023-05-21T05:54:43.631Z,3.70
2023-05-21T05:57:10.598Z,3.92
2023-05-21T05:59:37.441Z,3.10
2023-05-21T06:02:04.468Z,3.58
2023-05-21T06:04:31.357Z,3.30
2023-05-21T06:06:58.560Z,3.13
2023-05-21T06:09:25.576Z,2.88
2023-05-21T06:11:52.437Z,2.85
2023-05-21T06:14:19.287Z,3.00
2023-05-21T06:16:46.234Z,2.90
2023-05-21T06:19:13.244Z,3.30
2023-05-21T06:21:40.113Z,3.05
2023-05-21T06:24:07.115Z,3.17
2023-05-21T06:26:34.026Z,3.05
2023-05-21T06:29:00.960Z,2.80
2023-05-21T06:31:28.037Z,3.20
2023-05-21T06:33:55.295Z,2.55
2023-05-21T06:36:22.234Z,2.85
2023-05-21T06:38:49.157Z,2.70
2023-05-21T06:41:16.088Z,3.03
2023-05-21T06:43:42.937Z,2.65
2023-05-21T06:46:09.921Z,2.42
2023-05-21T06:48:37.029Z,2.75
2023-05-21T06:51:03.976Z,2.40
2023-05-21T06:53:31.054Z,2.15
2023-05-21T06:55:57.961Z,2.38
2023-05-21T06:58:25.599Z,2.92
2023-05-21T07:00:52.476Z,2.47
2023-05-21T07:03:19.411Z,2.35
2023-05-21T07:05:46.470Z,2.63
2023-05-21T07:08:13.300Z,2.60
2023-05-21T07:10:40.776Z,2.33
2023-05-21T07:13:07.917Z,3.05
2023-05-21T07:15:35.229Z,2.15
2023-05-21T07:18:02.360Z,2.97
2023-05-21T07:20:29.710Z,2.63
2023-05-21T07:22:56.823Z,2.65
2023-05-21T07:25:23.982Z,2.60
2023-05-21T07:27:50.965Z,3.95
2023-05-21T07:30:18.337Z,2.17
2023-05-21T07:32:45.328Z,2.30
2023-05-21T07:35:12.586Z,2.67
2023-05-21T07:37:39.851Z,2.90
2023-05-21T07:40:08.110Z,2.50
2023-05-21T07:42:35.352Z,2.13
2023-05-21T07:45:02.623Z,2.05
2023-05-21T07:47:29.699Z,2.40
2023-05-21T07:49:56.871Z,2.22
2023-05-21T07:52:23.931Z,1.80
2023-05-21T07:54:51.232Z,2.28
2023-05-21T07:57:18.244Z,2.50
2023-05-21T07:59:45.740Z,2.17
2023-05-21T08:02:13.017Z,2.10
2023-05-21T08:04:41.311Z,2.35
2023-05-21T08:07:09.834Z,2.38
2023-05-21T08:09:37.004Z,2.63
2023-05-21T08:12:04.365Z,1.75
2023-05-21T08:14:31.364Z,2.45
2023-05-21T08:16:58.552Z,2.10
2023-05-21T08:19:25.542Z,2.10
2023-05-21T08:21:53.067Z,1.80
2023-05-21T08:24:20.374Z,2.13
2023-05-21T08:26:49.614Z,1.42
2023-05-21T08:29:16.824Z,1.77
2023-05-21T08:31:43.858Z,1.67
2023-05-21T08:34:10.965Z,1.73
2023-05-21T08:36:38.360Z,2.13
2023-05-21T08:39:05.269Z,1.63
2023-05-21T08:41:35.178Z,1.70
2023-05-21T08:44:03.152Z,1.80
2023-05-21T08:46:34.811Z,1.30
2023-05-21T08:49:03.385Z,1.75
2023-05-21T08:51:31.491Z,1.50
2023-05-21T08:54:01.718Z,2.15
2023-05-21T08:56:31.919Z,1.63
2023-05-21T08:58:59.460Z,2.00
2023-05-21T09:01:28.304Z,1.60
2023-05-21T09:04:05.043Z,1.88
2023-05-21T09:06:37.833Z,1.50
2023-05-21T09:09:33.697Z,2.13
2023-05-21T09:12:01.046Z,2.00
2023-05-21T09:14:28.944Z,2.13
2023-05-21T09:16:56.160Z,1.30
2023-05-21T09:19:23.297Z,1.90
2023-05-21T09:21:53.299Z,1.60
2023-05-21T09:24:23.041Z,1.90
2023-05-21T09:26:50.447Z,1.75
2023-05-21T09:29:17.477Z,1.30
2023-05-21T09:31:47.711Z,1.67
2023-05-21T09:34:15.017Z,1.98
2023-05-21T09:36:41.911Z,1.70
2023-05-21T09:39:11.319Z,1.90
2023-05-21T09:41:42.710Z,1.50
2023-05-21T09:44:10.956Z,1.77
2023-05-21T09:46:39.994Z,1.88
2023-05-21T09:49:07.310Z,1.70
2023-05-21T09:51:38.381Z,1.90
2023-05-21T09:54:05.391Z,1.73
2023-05-21T09:56:34.871Z,1.55
2023-05-21T09:59:06.542Z,2.70
2023-05-21T10:01:34.877Z,1.80
2023-05-21T10:04:06.548Z,1.88
2023-05-21T10:06:38.006Z,1.83
2023-05-21T10:09:11.169Z,1.50
2023-05-21T10:11:42.107Z,1.48
2023-05-21T10:14:23.345Z,1.92
2023-05-21T10:16:52.612Z,1.73
2023-05-21T10:19:20.322Z,1.67
2023-05-21T10:21:47.979Z,1.55
2023-05-21T10:24:17.184Z,1.35
2023-05-21T10:26:46.183Z,1.38
2023-05-21T10:29:18.166Z,1.77
2023-05-21T10:31:49.998Z,2.05
2023-05-21T10:34:17.909Z,1.65
2023-05-21T10:36:46.253Z,2.00
2023-05-21T10:39:14.080Z,1.92
2023-05-21T10:41:55.374Z,1.70
2023-05-21T10:44:48.811Z,1.50
2023-05-21T10:47:56.185Z,1.75
2023-05-21T10:51:01.773Z,1.70
2023-05-21T10:53:49.605Z,1.60
2023-05-21T10:56:40.831Z,1.83
2023-05-21T10:59:25.504Z,1.55
2023-05-21T11:01:53.258Z,1.60
2023-05-21T11:04:27.306Z,1.58
2023-05-21T11:06:54.307Z,1.80
2023-05-21T11:09:21.317Z,2.00
2023-05-21T11:11:58.809Z,1.60
2023-05-21T11:14:35.388Z,1.55
2023-05-21T11:17:13.838Z,2.22
2023-05-21T11:19:47.494Z,2.25
2023-05-21T11:22:23.362Z,1.85
2023-05-21T11:24:51.537Z,1.50
2023-05-21T11:27:40.138Z,1.52
2023-05-21T11:30:15.304Z,1.77
2023-05-21T11:33:14.022Z,1.50
2023-05-21T11:35:59.437Z,1.98
2023-05-21T11:38:33.020Z,1.63
2023-05-21T11:41:06.073Z,1.98
2023-05-21T11:43:32.934Z,1.83
2023-05-21T11:45:59.892Z,1.88
2023-05-21T11:48:28.510Z,2.08
2023-05-21T11:50:57.584Z,1.67
2023-05-21T11:53:24.692Z,2.03
2023-05-21T11:55:57.384Z,1.60
2023-05-21T11:58:24.759Z,1.60
2023-05-21T12:00:52.124Z,1.58
2023-05-21T12:03:20.097Z,1.67
2023-05-21T12:05:48.586Z,1.73
2023-05-21T12:08:28.894Z,1.83
2023-05-21T12:10:59.152Z,1.98
2023-05-21T12:13:26.727Z,1.70
2023-05-21T12:15:56.673Z,1.92
2023-05-21T12:18:25.690Z,1.85
2023-05-21T12:20:53.162Z,1.75
2023-05-21T12:23:26.178Z,2.20
2023-05-21T12:25:54.583Z,2.08
2023-05-21T12:28:22.738Z,1.48
2023-05-21T12:30:49.751Z,1.60
2023-05-21T12:33:18.082Z,1.88
2023-05-21T12:35:50.347Z,1.65
2023-05-21T12:38:17.549Z,1.88
2023-05-21T12:40:45.746Z,1.50
2023-05-21T12:43:12.944Z,1.60
2023-05-21T12:45:40.228Z,1.77
2023-05-21T12:48:07.436Z,1.90
2023-05-21T12:50:35.899Z,1.70
2023-05-21T12:53:03.189Z,1.77
2023-05-21T12:55:31.634Z,1.42
2023-05-21T12:58:07.911Z,1.60
2023-05-21T13:00:35.406Z,1.50
2023-05-21T13:03:04.667Z,1.75
2023-05-21T13:05:31.906Z,1.85
2023-05-21T13:07:58.758Z,1.85
2023-05-21T13:10:25.712Z,1.58
2023-05-21T13:12:52.890Z,1.48
2023-05-21T13:15:20.284Z,1.73
2023-05-21T13:17:49.733Z,1.63
2023-05-21T13:20:34.509Z,1.50
2023-05-21T13:23:03.511Z,1.80
2023-05-21T13:25:35.386Z,2.03
2023-05-21T13:28:05.115Z,1.58
2023-05-21T13:30:33.400Z,1.65
2023-05-21T13:33:00.556Z,1.70
2023-05-21T13:35:27.581Z,2.30
2023-05-21T13:37:54.488Z,1.60
2023-05-21T13:40:22.244Z,1.90
2023-05-21T13:42:49.746Z,1.60
2023-05-21T13:45:20.134Z,1.95
2023-05-21T13:47:48.200Z,1.88
2023-05-21T13:50:16.669Z,1.60
2023-05-21T13:52:43.620Z,1.80
2023-05-21T13:55:10.776Z,1.50
2023-05-21T13:57:38.085Z,1.65
2023-05-21T14:00:05.974Z,1.80
2023-05-21T14:02:33.010Z,1.92
2023-05-21T14:05:00.037Z,2.35
2023-05-21T14:07:26.998Z,2.05
2023-05-21T14:09:53.864Z,1.88
2023-05-21T14:12:21.767Z,1.77
2023-05-21T14:14:49.939Z,1.70
2023-05-21T14:17:17.016Z,1.80
2023-05-21T14:19:43.944Z,2.03
2023-05-21T14:22:10.871Z,1.92
2023-05-21T14:24:37.749Z,1.80
2023-05-21T14:27:04.700Z,1.40
2023-05-21T14:29:31.801Z,1.55
2023-05-21T14:31:58.672Z,1.92
2023-05-21T14:34:25.656Z,1.77
2023-05-21T14:36:52.567Z,2.15
2023-05-21T14:39:19.399Z,1.48
2023-05-21T14:41:46.326Z,1.83
2023-05-21T14:44:13.274Z,1.48
2023-05-21T14:46:40.291Z,1.55
2023-05-21T14:49:07.204Z,1.88
2023-05-21T14:51:34.052Z,1.75
2023-05-21T14:54:00.908Z,1.20
2023-05-21T14:56:28.210Z,1.58
2023-05-21T14:58:55.627Z,1.67
2023-05-21T15:01:22.703Z,1.85
2023-05-21T15:03:49.801Z,1.60
2023-05-21T15:06:16.946Z,1.75
2023-05-21T15:08:43.964Z,1.70
2023-05-21T15:11:11.601Z,1.25
2023-05-21T15:13:38.756Z,1.20
2023-05-21T15:16:06.227Z,1.40
2023-05-21T15:18:33.467Z,1.55
2023-05-21T15:21:00.547Z,1.80
2023-05-21T15:23:27.416Z,1.63
2023-05-21T15:25:54.481Z,1.50
2023-05-21T15:28:23.305Z,1.65
2023-05-21T15:30:50.204Z,2.17
2023-05-21T15:33:17.129Z,1.73
2023-05-21T15:35:44.461Z,1.45
2023-05-21T15:38:11.747Z,1.75
2023-05-21T15:40:42.029Z,1.40
2023-05-21T15:43:09.154Z,1.77
2023-05-21T15:45:36.354Z,1.60
2023-05-21T15:48:03.421Z,2.28
2023-05-21T15:50:30.359Z,1.60
2023-05-21T15:52:57.201Z,1.70
2023-05-21T15:55:24.104Z,1.80
2023-05-21T15:57:50.980Z,1.80
2023-05-21T16:00:18.314Z,1.67
2023-05-21T16:02:45.291Z,2.13
2023-05-21T16:05:12.201Z,1.90
2023-05-21T16:07:39.538Z,1.80
2023-05-21T16:10:09.400Z,1.88
2023-05-21T16:12:36.288Z,1.45
2023-05-21T16:15:03.202Z,1.73
2023-05-21T16:17:30.279Z,1.65
2023-05-21T16:19:57.409Z,1.40
2023-05-21T16:22:25.069Z,1.48
2023-05-21T16:24:51.918Z,1.83
2023-05-21T16:27:18.804Z,1.85
2023-05-21T16:29:45.815Z,1.70
2023-05-21T16:32:14.224Z,1.90
2023-05-21T16:34:41.503Z,1.98
2023-05-21T16:37:09.816Z,1.70
2023-05-21T16:39:37.498Z,2.05
2023-05-21T16:42:04.912Z,2.10
2023-05-21T16:44:32.343Z,2.10
2023-05-21T16:47:00.422Z,2.38
2023-05-21T16:49:28.658Z,1.67
2023-05-21T16:51:55.761Z,1.80
2023-05-21T16:54:22.901Z,2.22
2023-05-21T16:56:50.269Z,1.70
2023-05-21T16:59:17.494Z,2.30
2023-05-21T17:01:44.718Z,1.33
2023-05-21T17:04:11.803Z,1.70
2023-05-21T17:06:38.979Z,2.38
2023-05-21T17:09:06.189Z,2.40
2023-05-21T17:11:34.948Z,1.63
2023-05-21T17:14:01.981Z,2.65
2023-05-21T17:16:29.097Z,2.45
2023-05-21T17:18:56.166Z,1.92
2023-05-21T17:21:23.097Z,2.05
2023-05-21T17:23:49.956Z,2.38
2023-05-21T17:26:17.170Z,2.03
2023-05-21T17:28:44.308Z,2.35
2023-05-21T17:31:11.431Z,2.05
2023-05-21T17:33:40.023Z,2.20
2023-05-21T17:36:07.246Z,2.40
2023-05-21T17:38:34.419Z,2.00
2023-05-21T17:41:01.582Z,2.05
2023-05-21T17:43:28.661Z,2.72
2023-05-21T17:45:55.857Z,2.25
2023-05-21T17:48:23.270Z,2.50
2023-05-21T17:50:51.057Z,2.30
2023-05-21T17:53:18.313Z,2.13
2023-05-21T17:55:45.339Z,2.22
2023-05-21T17:58:12.472Z,2.30
2023-05-21T18:00:39.417Z,2.60
2023-05-21T18:03:06.562Z,1.90
2023-05-21T18:05:33.641Z,2.25
2023-05-21T18:08:04.768Z,2.08
2023-05-21T18:10:31.658Z,2.97
2023-05-21T18:12:58.508Z,2.42
2023-05-21T18:15:25.379Z,2.90
2023-05-21T18:17:52.365Z,2.13
2023-05-21T18:20:19.309Z,3.88
2023-05-21T18:22:46.273Z,2.42
2023-05-21T18:25:13.475Z,2.83
2023-05-21T18:27:40.308Z,2.88
2023-05-21T18:30:08.830Z,2.65
2023-05-21T18:32:38.925Z,2.75
2023-05-21T18:35:10.956Z,2.65
2023-05-21T18:37:41.612Z,2.60
2023-05-21T18:40:09.117Z,2.88
2023-05-21T18:42:36.343Z,2.88
2023-05-21T18:45:10.353Z,3.35
2023-05-21T18:47:39.218Z,3.10
2023-05-21T18:50:12.757Z,3.35
2023-05-21T18:52:39.813Z,3.15
2023-05-21T18:55:07.310Z,3.45
2023-05-21T18:57:34.942Z,4.03
2023-05-21T19:00:02.214Z,3.33
2023-05-21T19:02:29.826Z,6.90
2023-05-21T19:04:57.126Z,3.63
2023-05-21T19:07:24.254Z,2.80
2023-05-21T19:09:52.968Z,2.85
2023-05-21T19:12:20.248Z,2.67
2023-05-21T19:14:47.447Z,3.10
2023-05-21T19:17:14.716Z,2.70
2023-05-21T19:19:42.008Z,2.60
2023-05-21T19:22:08.964Z,2.63
2023-05-21T19:24:35.827Z,3.30
2023-05-21T19:27:02.723Z,3.22
2023-05-21T19:29:29.635Z,2.50
2023-05-21T19:31:57.378Z,4.35
2023-05-21T19:34:24.315Z,3.92
2023-05-21T19:36:53.666Z,5.10
2023-05-21T19:39:21.275Z,4.65
2023-05-21T19:41:48.195Z,4.63
2023-05-21T19:44:15.377Z,4.15
2023-05-21T19:46:42.280Z,4.25
2023-05-21T19:49:11.140Z,3.65
2023-05-21T19:51:38.093Z,3.72
2023-05-21T19:54:05.077Z,4.00
2023-05-21T19:56:31.912Z,3.65
2023-05-21T19:58:58.985Z,4.22
2023-05-21T20:01:26.127Z,3.80
2023-05-21T20:03:53.116Z,3.65
2023-05-21T20:06:20.780Z,5.03
2023-05-21T20:08:48.051Z,4.05
2023-05-21T20:11:15.541Z,3.78
2023-05-21T20:13:42.547Z,4.95
2023-05-21T20:16:10.684Z,4.95
2023-05-21T20:18:37.733Z,5.35
2023-05-21T20:21:06.497Z,5.30
2023-05-21T20:23:33.589Z,5.05
2023-05-21T20:26:00.739Z,5.55
2023-05-21T20:28:27.812Z,5.97
2023-05-21T20:30:59.285Z,6.90
2023-05-21T20:33:32.072Z,8.80
2023-05-21T20:36:00.014Z,9.88
2023-05-21T20:38:27.523Z,10.98
2023-05-21T20:40:55.341Z,10.52
2023-05-21T20:43:24.480Z,11.75
2023-05-21T20:45:59.390Z,10.95
2023-05-21T20:48:31.979Z,11.35
2023-05-21T20:51:00.264Z,10.15
2023-05-21T20:53:27.260Z,10.15
2023-05-21T20:55:58.043Z,9.93
2023-05-21T20:58:25.777Z,10.05
2023-05-21T21:00:52.935Z,12.75
2023-05-21T21:03:21.625Z,7.60
2023-05-21T21:05:48.974Z,5.97
2023-05-21T21:08:16.270Z,6.65
2023-05-21T21:10:46.908Z,7.78
2023-05-21T21:13:14.428Z,9.05
2023-05-21T21:15:43.160Z,12.85
2023-05-21T21:18:12.583Z,16.10
2023-05-21T21:20:41.479Z,10.63
2023-05-21T21:23:08.980Z,9.57
2023-05-21T21:25:36.526Z,7.63
2023-05-21T21:28:03.732Z,7.30
2023-05-21T21:30:30.962Z,6.55
2023-05-21T21:32:58.068Z,6.15
2023-05-21T21:35:25.168Z,6.03
2023-05-21T21:37:52.191Z,5.97
2023-05-21T21:40:19.052Z,6.22
2023-05-21T21:42:46.437Z,5.20
2023-05-21T21:45:13.390Z,6.72
2023-05-21T21:47:40.688Z,5.50
2023-05-21T21:50:08.371Z,5.43
2023-05-21T21:52:40.159Z,5.63
2023-05-21T21:55:10.930Z,5.70
2023-05-21T21:57:39.027Z,5.78
2023-05-21T22:00:16.029Z,6.38
2023-05-21T22:02:43.832Z,7.07
2023-05-21T22:05:14.817Z,8.68
2023-05-21T22:07:46.627Z,7.70
2023-05-21T22:10:17.471Z,7.40
2023-05-21T22:12:46.001Z,6.95
2023-05-21T22:15:28.755Z,6.57
2023-05-21T22:17:56.008Z,6.80
2023-05-21T22:20:23.229Z,8.27
2023-05-21T22:22:50.152Z,8.77
2023-05-21T22:25:17.370Z,11.63
2023-05-21T22:27:44.477Z,11.10
2023-05-21T22:30:12.001Z,12.05
2023-05-21T22:32:39.258Z,13.17
2023-05-21T22:35:07.906Z,13.10
2023-05-21T22:37:34.900Z,13.33
2023-05-21T22:40:02.054Z,13.05
2023-05-21T22:42:29.135Z,9.30
2023-05-21T22:44:56.309Z,8.10
2023-05-21T22:47:24.200Z,9.45
2023-05-21T22:49:53.926Z,15.97
2023-05-21T22:52:24.278Z,15.80
2023-05-21T22:54:54.740Z,17.48
2023-05-21T22:57:21.968Z,13.67
2023-05-21T22:59:49.629Z,13.03
2023-05-21T23:02:16.712Z,11.47
2023-05-21T23:04:44.688Z,10.85
2023-05-21T23:07:12.323Z,10.63
2023-05-21T23:09:39.595Z,10.00
2023-05-21T23:12:07.119Z,9.37
2023-05-21T23:14:34.137Z,7.97
2023-05-21T23:17:04.586Z,9.68
2023-05-21T23:19:33.006Z,12.52
2023-05-21T23:22:00.589Z,11.00
2023-05-21T23:24:29.500Z,7.93
2023-05-21T23:27:01.874Z,9.80
2023-05-21T23:29:32.011Z,9.63
2023-05-21T23:32:01.334Z,9.47
2023-05-21T23:34:28.834Z,6.97
2023-05-21T23:36:57.019Z,6.90
2023-05-21T23:39:28.019Z,6.73
2023-05-21T23:41:55.423Z,6.10
2023-05-21T23:44:22.385Z,7.10
2023-05-21T23:46:50.066Z,7.73
2023-05-21T23:49:17.501Z,7.03
2023-05-21T23:51:44.567Z,6.23
2023-05-21T23:54:11.595Z,7.43
2023-05-21T23:56:38.751Z,8.87
2023-05-21T23:59:06.410Z,13.97
